sensor_id;sensor_type;location;lat;lon;timestamp;temperature;humidity
34145;HTU21D;69555;53.014;8.886;2023-07-28T00:01:34;17.96;102.18
34145;HTU21D;69555;53.014;8.886;2023-07-28T00:03:59;17.98;102.19
34145;HTU21D;69555;53.014;8.886;2023-07-28T00:06:24;17.98;101.96
34145;HTU21D;69555;53.014;8.886;2023-07-28T00:08:50;18.04;101.86
34145;HTU21D;69555;53.014;8.886;2023-07-28T00:11:16;18.15;101.40
34145;HTU21D;69555;53.014;8.886;2023-07-28T00:13:42;18.17;100.93
34145;HTU21D;69555;53.014;8.886;2023-07-28T00:16:09;18.12;101.66
34145;HTU21D;69555;53.014;8.886;2023-07-28T00:18:35;18.19;100.67
34145;HTU21D;69555;53.014;8.886;2023-07-28T00:21:00;18.07;101.13
34145;HTU21D;69555;53.014;8.886;2023-07-28T00:23:26;18.27;100.62
34145;HTU21D;69555;53.014;8.886;2023-07-28T00:25:51;18.37;100.19
34145;HTU21D;69555;53.014;8.886;2023-07-28T00:28:17;18.20;100.70
34145;HTU21D;69555;53.014;8.886;2023-07-28T00:30:42;18.25;99.89
34145;HTU21D;69555;53.014;8.886;2023-07-28T00:33:08;18.23;99.80
34145;HTU21D;69555;53.014;8.886;2023-07-28T00:35:33;18.29;100.11
34145;HTU21D;69555;53.014;8.886;2023-07-28T00:37:58;18.11;100.80
34145;HTU21D;69555;53.014;8.886;2023-07-28T00:40:24;18.17;100.63
34145;HTU21D;69555;53.014;8.886;2023-07-28T00:42:49;18.34;99.96
34145;HTU21D;69555;53.014;8.886;2023-07-28T00:45:15;18.22;100.53
34145;HTU21D;69555;53.014;8.886;2023-07-28T00:47:41;18.54;99.17
34145;HTU21D;69555;53.014;8.886;2023-07-28T00:50:10;18.56;98.56
34145;HTU21D;69555;53.014;8.886;2023-07-28T00:52:37;18.38;99.25
34145;HTU21D;69555;53.014;8.886;2023-07-28T00:55:03;18.41;99.52
34145;HTU21D;69555;53.014;8.886;2023-07-28T00:57:28;18.20;100.15
34145;HTU21D;69555;53.014;8.886;2023-07-28T00:59:54;18.36;99.69
34145;HTU21D;69555;53.014;8.886;2023-07-28T01:02:20;18.35;99.91
34145;HTU21D;69555;53.014;8.886;2023-07-28T01:04:47;18.50;98.88
34145;HTU21D;69555;53.014;8.886;2023-07-28T01:07:22;18.22;100.29
34145;HTU21D;69555;53.014;8.886;2023-07-28T01:10:02;18.17;100.93
34145;HTU21D;69555;53.014;8.886;2023-07-28T01:12:28;18.37;100.12
34145;HTU21D;69555;53.014;8.886;2023-07-28T01:14:54;18.37;99.63
34145;HTU21D;69555;53.014;8.886;2023-07-28T01:17:19;18.47;99.33
34145;HTU21D;69555;53.014;8.886;2023-07-28T01:19:45;18.66;98.46
34145;HTU21D;69555;53.014;8.886;2023-07-28T01:22:20;18.55;98.35
34145;HTU21D;69555;53.014;8.886;2023-07-28T01:25:18;18.74;97.46
34145;HTU21D;69555;53.014;8.886;2023-07-28T01:27:47;18.72;97.64
34145;HTU21D;69555;53.014;8.886;2023-07-28T01:30:14;18.49;98.76
34145;HTU21D;69555;53.014;8.886;2023-07-28T01:32:39;18.65;97.97
34145;HTU21D;69555;53.014;8.886;2023-07-28T01:35:05;18.71;97.78
34145;HTU21D;69555;53.014;8.886;2023-07-28T01:37:30;18.33;99.62
34145;HTU21D;69555;53.014;8.886;2023-07-28T01:39:56;18.33;99.69
34145;HTU21D;69555;53.014;8.886;2023-07-28T01:42:23;18.29;100.11
34145;HTU21D;69555;53.014;8.886;2023-07-28T01:44:48;18.12;100.81
34145;HTU21D;69555;53.014;8.886;2023-07-28T01:47:14;18.17;100.42
34145;HTU21D;69555;53.014;8.886;2023-07-28T01:49:39;17.99;101.17
34145;HTU21D;69555;53.014;8.886;2023-07-28T01:52:05;18.06;101.00
34145;HTU21D;69555;53.014;8.886;2023-07-28T01:54:30;18.03;100.93
34145;HTU21D;69555;53.014;8.886;2023-07-28T01:56:55;17.98;101.38
34145;HTU21D;69555;53.014;8.886;2023-07-28T01:59:21;18.04;101.58
34145;HTU21D;69555;53.014;8.886;2023-07-28T02:01:47;18.05;101.16
34145;HTU21D;69555;53.014;8.886;2023-07-28T02:04:12;18.32;100.21
34145;HTU21D;69555;53.014;8.886;2023-07-28T02:06:38;18.29;99.88
34145;HTU21D;69555;53.014;8.886;2023-07-28T02:09:03;18.40;99.24
34145;HTU21D;69555;53.014;8.886;2023-07-28T02:11:29;18.41;98.70
34145;HTU21D;69555;53.014;8.886;2023-07-28T02:13:54;18.41;98.99
34145;HTU21D;69555;53.014;8.886;2023-07-28T02:16:19;18.37;99.38
34145;HTU21D;69555;53.014;8.886;2023-07-28T02:18:45;18.28;99.36
34145;HTU21D;69555;53.014;8.886;2023-07-28T02:21:10;18.43;98.58
34145;HTU21D;69555;53.014;8.886;2023-07-28T02:23:36;18.30;99.38
34145;HTU21D;69555;53.014;8.886;2023-07-28T02:26:01;18.18;100.01
34145;HTU21D;69555;53.014;8.886;2023-07-28T02:28:26;18.32;99.33
34145;HTU21D;69555;53.014;8.886;2023-07-28T02:30:52;18.42;99.07
34145;HTU21D;69555;53.014;8.886;2023-07-28T02:33:17;18.02;100.74
34145;HTU21D;69555;53.014;8.886;2023-07-28T02:35:43;18.15;100.68
34145;HTU21D;69555;53.014;8.886;2023-07-28T02:38:08;18.12;100.66
34145;HTU21D;69555;53.014;8.886;2023-07-28T02:40:33;18.04;101.01
34145;HTU21D;69555;53.014;8.886;2023-07-28T02:42:59;18.08;101.16
34145;HTU21D;69555;53.014;8.886;2023-07-28T02:45:25;18.19;100.45
34145;HTU21D;69555;53.014;8.886;2023-07-28T02:47:50;18.25;100.16
34145;HTU21D;69555;53.014;8.886;2023-07-28T02:50:16;18.13;100.68
34145;HTU21D;69555;53.014;8.886;2023-07-28T02:52:42;17.98;101.10
34145;HTU21D;69555;53.014;8.886;2023-07-28T02:55:08;17.93;102.17
34145;HTU21D;69555;53.014;8.886;2023-07-28T02:57:33;18.17;100.99
34145;HTU21D;69555;53.014;8.886;2023-07-28T02:59:59;18.19;100.96
34145;HTU21D;69555;53.014;8.886;2023-07-28T03:02:24;18.12;100.70
34145;HTU21D;69555;53.014;8.886;2023-07-28T03:04:49;18.10;101.06
34145;HTU21D;69555;53.014;8.886;2023-07-28T03:07:15;18.20;100.93
34145;HTU21D;69555;53.014;8.886;2023-07-28T03:09:40;18.43;99.90
34145;HTU21D;69555;53.014;8.886;2023-07-28T03:12:06;18.44;99.16
34145;HTU21D;69555;53.014;8.886;2023-07-28T03:14:32;18.40;99.35
34145;HTU21D;69555;53.014;8.886;2023-07-28T03:16:57;18.49;99.28
34145;HTU21D;69555;53.014;8.886;2023-07-28T03:19:23;18.48;99.22
34145;HTU21D;69555;53.014;8.886;2023-07-28T03:21:48;18.66;97.68
34145;HTU21D;69555;53.014;8.886;2023-07-28T03:24:14;18.54;98.87
34145;HTU21D;69555;53.014;8.886;2023-07-28T03:26:39;18.42;99.16
34145;HTU21D;69555;53.014;8.886;2023-07-28T03:29:04;18.43;99.31
34145;HTU21D;69555;53.014;8.886;2023-07-28T03:31:30;18.33;99.92
34145;HTU21D;69555;53.014;8.886;2023-07-28T03:33:55;18.52;99.09
34145;HTU21D;69555;53.014;8.886;2023-07-28T03:36:21;18.09;101.02
34145;HTU21D;69555;53.014;8.886;2023-07-28T03:38:46;18.13;101.03
34145;HTU21D;69555;53.014;8.886;2023-07-28T03:41:12;18.30;100.66
34145;HTU21D;69555;53.014;8.886;2023-07-28T03:43:38;18.22;100.48
34145;HTU21D;69555;53.014;8.886;2023-07-28T03:46:03;18.20;100.42
34145;HTU21D;69555;53.014;8.886;2023-07-28T03:48:29;18.18;100.72
34145;HTU21D;69555;53.014;8.886;2023-07-28T03:50:54;18.21;100.28
34145;HTU21D;69555;53.014;8.886;2023-07-28T03:53:20;18.05;101.60
34145;HTU21D;69555;53.014;8.886;2023-07-28T03:55:45;18.05;101.50
34145;HTU21D;69555;53.014;8.886;2023-07-28T03:58:10;18.10;101.21
34145;HTU21D;69555;53.014;8.886;2023-07-28T04:00:36;18.04;101.18
34145;HTU21D;69555;53.014;8.886;2023-07-28T04:03:01;18.12;101.48
34145;HTU21D;69555;53.014;8.886;2023-07-28T04:05:26;18.17;101.03
34145;HTU21D;69555;53.014;8.886;2023-07-28T04:07:52;18.07;101.60
34145;HTU21D;69555;53.014;8.886;2023-07-28T04:10:17;18.10;101.37
34145;HTU21D;69555;53.014;8.886;2023-07-28T04:12:43;18.13;101.33
34145;HTU21D;69555;53.014;8.886;2023-07-28T04:15:08;18.15;101.26
34145;HTU21D;69555;53.014;8.886;2023-07-28T04:17:34;17.95;102.24
34145;HTU21D;69555;53.014;8.886;2023-07-28T04:19:59;18.20;101.27
34145;HTU21D;69555;53.014;8.886;2023-07-28T04:22:25;18.10;101.60
34145;HTU21D;69555;53.014;8.886;2023-07-28T04:24:50;18.04;102.00
34145;HTU21D;69555;53.014;8.886;2023-07-28T04:27:15;18.17;101.43
34145;HTU21D;69555;53.014;8.886;2023-07-28T04:29:41;18.14;101.14
34145;HTU21D;69555;53.014;8.886;2023-07-28T04:32:07;18.05;102.17
34145;HTU21D;69555;53.014;8.886;2023-07-28T04:34:35;17.96;102.55
34145;HTU21D;69555;53.014;8.886;2023-07-28T04:37:01;18.06;102.25
34145;HTU21D;69555;53.014;8.886;2023-07-28T04:39:27;18.05;102.07
34145;HTU21D;69555;53.014;8.886;2023-07-28T04:41:52;18.21;101.38
34145;HTU21D;69555;53.014;8.886;2023-07-28T04:44:18;18.12;101.77
34145;HTU21D;69555;53.014;8.886;2023-07-28T04:46:44;18.24;101.11
34145;HTU21D;69555;53.014;8.886;2023-07-28T04:49:12;18.48;100.10
34145;HTU21D;69555;53.014;8.886;2023-07-28T04:51:38;18.34;100.46
34145;HTU21D;69555;53.014;8.886;2023-07-28T04:54:03;18.47;100.12
34145;HTU21D;69555;53.014;8.886;2023-07-28T04:56:29;18.54;99.34
34145;HTU21D;69555;53.014;8.886;2023-07-28T04:58:54;18.38;99.63
34145;HTU21D;69555;53.014;8.886;2023-07-28T05:01:19;18.22;101.00
34145;HTU21D;69555;53.014;8.886;2023-07-28T05:03:45;18.32;100.53
34145;HTU21D;69555;53.014;8.886;2023-07-28T05:06:10;18.26;100.42
34145;HTU21D;69555;53.014;8.886;2023-07-28T05:08:35;18.22;100.96
34145;HTU21D;69555;53.014;8.886;2023-07-28T05:11:01;18.17;100.19
34145;HTU21D;69555;53.014;8.886;2023-07-28T05:13:27;18.13;101.09
34145;HTU21D;69555;53.014;8.886;2023-07-28T05:15:52;18.30;100.58
34145;HTU21D;69555;53.014;8.886;2023-07-28T05:18:17;18.22;100.64
34145;HTU21D;69555;53.014;8.886;2023-07-28T05:20:43;18.14;101.48
34145;HTU21D;69555;53.014;8.886;2023-07-28T05:23:08;18.19;100.96
34145;HTU21D;69555;53.014;8.886;2023-07-28T05:25:34;18.13;101.33
34145;HTU21D;69555;53.014;8.886;2023-07-28T05:27:59;18.32;100.61
34145;HTU21D;69555;53.014;8.886;2023-07-28T05:30:24;18.21;101.10
34145;HTU21D;69555;53.014;8.886;2023-07-28T05:32:50;18.27;101.03
34145;HTU21D;69555;53.014;8.886;2023-07-28T05:35:15;18.26;101.17
34145;HTU21D;69555;53.014;8.886;2023-07-28T05:37:41;18.33;101.15
34145;HTU21D;69555;53.014;8.886;2023-07-28T05:40:07;18.58;98.99
34145;HTU21D;69555;53.014;8.886;2023-07-28T05:42:33;18.44;100.24
34145;HTU21D;69555;53.014;8.886;2023-07-28T05:44:58;18.36;100.79
34145;HTU21D;69555;53.014;8.886;2023-07-28T05:47:24;18.30;100.61
34145;HTU21D;69555;53.014;8.886;2023-07-28T05:49:49;18.25;101.03
34145;HTU21D;69555;53.014;8.886;2023-07-28T05:52:15;18.30;100.58
34145;HTU21D;69555;53.014;8.886;2023-07-28T05:54:41;18.27;101.10
34145;HTU21D;69555;53.014;8.886;2023-07-28T05:57:06;18.48;101.14
34145;HTU21D;69555;53.014;8.886;2023-07-28T05:59:31;18.69;100.00
34145;HTU21D;69555;53.014;8.886;2023-07-28T06:01:57;18.85;99.05
34145;HTU21D;69555;53.014;8.886;2023-07-28T06:04:22;19.03;98.35
34145;HTU21D;69555;53.014;8.886;2023-07-28T06:06:48;19.00;98.30
34145;HTU21D;69555;53.014;8.886;2023-07-28T06:09:13;18.98;98.88
34145;HTU21D;69555;53.014;8.886;2023-07-28T06:11:39;18.93;99.16
34145;HTU21D;69555;53.014;8.886;2023-07-28T06:14:04;18.96;99.04
34145;HTU21D;69555;53.014;8.886;2023-07-28T06:16:30;18.88;98.92
34145;HTU21D;69555;53.014;8.886;2023-07-28T06:18:56;19.00;99.22
34145;HTU21D;69555;53.014;8.886;2023-07-28T06:21:21;19.09;98.45
34145;HTU21D;69555;53.014;8.886;2023-07-28T06:23:47;19.14;98.16
34145;HTU21D;69555;53.014;8.886;2023-07-28T06:26:12;19.07;98.63
34145;HTU21D;69555;53.014;8.886;2023-07-28T06:28:37;19.06;97.78
34145;HTU21D;69555;53.014;8.886;2023-07-28T06:31:03;19.20;98.12
34145;HTU21D;69555;53.014;8.886;2023-07-28T06:33:29;19.06;98.00
34145;HTU21D;69555;53.014;8.886;2023-07-28T06:35:54;18.98;98.23
34145;HTU21D;69555;53.014;8.886;2023-07-28T06:38:20;18.91;99.00
34145;HTU21D;69555;53.014;8.886;2023-07-28T06:40:45;18.86;99.51
34145;HTU21D;69555;53.014;8.886;2023-07-28T06:43:11;18.83;99.34
34145;HTU21D;69555;53.014;8.886;2023-07-28T06:45:36;18.92;99.49
34145;HTU21D;69555;53.014;8.886;2023-07-28T06:48:02;18.87;98.60
34145;HTU21D;69555;53.014;8.886;2023-07-28T06:50:27;18.77;99.74
34145;HTU21D;69555;53.014;8.886;2023-07-28T06:52:53;18.76;100.07
34145;HTU21D;69555;53.014;8.886;2023-07-28T06:55:18;18.77;100.12
34145;HTU21D;69555;53.014;8.886;2023-07-28T06:57:46;18.89;99.84
34145;HTU21D;69555;53.014;8.886;2023-07-28T07:00:11;19.05;98.29
34145;HTU21D;69555;53.014;8.886;2023-07-28T07:02:37;19.25;98.04
34145;HTU21D;69555;53.014;8.886;2023-07-28T07:05:03;19.17;97.58
34145;HTU21D;69555;53.014;8.886;2023-07-28T07:07:29;19.26;97.27
34145;HTU21D;69555;53.014;8.886;2023-07-28T07:09:54;19.21;98.71
34145;HTU21D;69555;53.014;8.886;2023-07-28T07:12:20;19.15;97.41
34145;HTU21D;69555;53.014;8.886;2023-07-28T07:14:46;19.58;97.13
34145;HTU21D;69555;53.014;8.886;2023-07-28T07:17:12;19.42;96.65
34145;HTU21D;69555;53.014;8.886;2023-07-28T07:19:37;19.47;97.01
34145;HTU21D;69555;53.014;8.886;2023-07-28T07:22:04;19.48;97.23
34145;HTU21D;69555;53.014;8.886;2023-07-28T07:24:31;19.47;97.71
34145;HTU21D;69555;53.014;8.886;2023-07-28T07:26:58;19.44;97.21
34145;HTU21D;69555;53.014;8.886;2023-07-28T07:29:24;19.52;97.17
34145;HTU21D;69555;53.014;8.886;2023-07-28T07:31:51;19.16;97.21
34145;HTU21D;69555;53.014;8.886;2023-07-28T07:34:26;19.29;97.37
34145;HTU21D;69555;53.014;8.886;2023-07-28T07:36:54;19.12;98.72
34145;HTU21D;69555;53.014;8.886;2023-07-28T07:39:21;18.99;98.74
34145;HTU21D;69555;53.014;8.886;2023-07-28T07:41:47;19.10;98.93
34145;HTU21D;69555;53.014;8.886;2023-07-28T07:44:14;19.25;98.05
34145;HTU21D;69555;53.014;8.886;2023-07-28T07:46:41;19.21;97.93
34145;HTU21D;69555;53.014;8.886;2023-07-28T07:49:07;19.21;98.15
34145;HTU21D;69555;53.014;8.886;2023-07-28T07:51:34;19.20;97.91
34145;HTU21D;69555;53.014;8.886;2023-07-28T07:54:01;19.25;98.55
34145;HTU21D;69555;53.014;8.886;2023-07-28T07:56:27;19.24;98.18
34145;HTU21D;69555;53.014;8.886;2023-07-28T07:58:53;19.31;97.54
34145;HTU21D;69555;53.014;8.886;2023-07-28T08:01:20;19.50;97.45
34145;HTU21D;69555;53.014;8.886;2023-07-28T08:03:47;19.86;97.19
34145;HTU21D;69555;53.014;8.886;2023-07-28T08:06:14;20.48;94.13
34145;HTU21D;69555;53.014;8.886;2023-07-28T08:08:41;20.49;93.30
34145;HTU21D;69555;53.014;8.886;2023-07-28T08:11:07;20.32;94.07
34145;HTU21D;69555;53.014;8.886;2023-07-28T08:13:34;20.14;94.72
34145;HTU21D;69555;53.014;8.886;2023-07-28T08:16:01;20.39;93.46
34145;HTU21D;69555;53.014;8.886;2023-07-28T08:18:27;20.29;94.02
34145;HTU21D;69555;53.014;8.886;2023-07-28T08:20:54;20.16;94.33
34145;HTU21D;69555;53.014;8.886;2023-07-28T08:23:20;20.02;94.16
34145;HTU21D;69555;53.014;8.886;2023-07-28T08:25:47;19.94;95.26
34145;HTU21D;69555;53.014;8.886;2023-07-28T08:28:14;19.75;95.09
34145;HTU21D;69555;53.014;8.886;2023-07-28T08:30:41;19.86;95.30
34145;HTU21D;69555;53.014;8.886;2023-07-28T08:33:08;19.66;96.36
34145;HTU21D;69555;53.014;8.886;2023-07-28T08:35:34;19.88;95.65
34145;HTU21D;69555;53.014;8.886;2023-07-28T08:38:01;19.63;96.45
34145;HTU21D;69555;53.014;8.886;2023-07-28T08:40:26;19.72;96.66
34145;HTU21D;69555;53.014;8.886;2023-07-28T08:42:53;19.71;96.44
34145;HTU21D;69555;53.014;8.886;2023-07-28T08:45:19;19.53;96.97
34145;HTU21D;69555;53.014;8.886;2023-07-28T08:47:44;19.52;97.55
34145;HTU21D;69555;53.014;8.886;2023-07-28T08:50:10;19.47;97.71
34145;HTU21D;69555;53.014;8.886;2023-07-28T08:52:36;19.69;97.23
34145;HTU21D;69555;53.014;8.886;2023-07-28T08:55:01;19.77;96.83
34145;HTU21D;69555;53.014;8.886;2023-07-28T08:57:27;20.00;95.63
34145;HTU21D;69555;53.014;8.886;2023-07-28T08:59:53;19.88;96.73
34145;HTU21D;69555;53.014;8.886;2023-07-28T09:02:19;19.96;96.13
34145;HTU21D;69555;53.014;8.886;2023-07-28T09:04:47;20.09;95.01
34145;HTU21D;69555;53.014;8.886;2023-07-28T09:07:13;20.15;94.66
34145;HTU21D;69555;53.014;8.886;2023-07-28T09:09:38;20.29;95.01
34145;HTU21D;69555;53.014;8.886;2023-07-28T09:12:04;20.06;94.20
34145;HTU21D;69555;53.014;8.886;2023-07-28T09:14:30;20.01;95.77
34145;HTU21D;69555;53.014;8.886;2023-07-28T09:16:55;20.16;93.34
34145;HTU21D;69555;53.014;8.886;2023-07-28T09:19:21;20.34;94.23
34145;HTU21D;69555;53.014;8.886;2023-07-28T09:21:58;20.46;93.81
34145;HTU21D;69555;53.014;8.886;2023-07-28T09:24:30;20.57;93.61
34145;HTU21D;69555;53.014;8.886;2023-07-28T09:26:58;20.72;93.11
34145;HTU21D;69555;53.014;8.886;2023-07-28T09:29:23;20.71;92.31
34145;HTU21D;69555;53.014;8.886;2023-07-28T09:31:50;20.72;92.41
34145;HTU21D;69555;53.014;8.886;2023-07-28T09:34:26;20.91;91.35
34145;HTU21D;69555;53.014;8.886;2023-07-28T09:36:58;20.98;91.11
34145;HTU21D;69555;53.014;8.886;2023-07-28T09:39:24;21.11;90.36
34145;HTU21D;69555;53.014;8.886;2023-07-28T09:41:49;21.05;90.89
34145;HTU21D;69555;53.014;8.886;2023-07-28T09:44:15;21.06;89.66
34145;HTU21D;69555;53.014;8.886;2023-07-28T09:46:52;21.04;89.18
34145;HTU21D;69555;53.014;8.886;2023-07-28T09:49:22;20.73;90.64
34145;HTU21D;69555;53.014;8.886;2023-07-28T09:51:53;20.58;91.82
34145;HTU21D;69555;53.014;8.886;2023-07-28T09:54:29;20.40;92.59
34145;HTU21D;69555;53.014;8.886;2023-07-28T09:57:01;20.64;92.43
34145;HTU21D;69555;53.014;8.886;2023-07-28T09:59:39;20.54;91.93
34145;HTU21D;69555;53.014;8.886;2023-07-28T10:02:07;20.55;92.14
34145;HTU21D;69555;53.014;8.886;2023-07-28T10:04:34;20.71;90.82
34145;HTU21D;69555;53.014;8.886;2023-07-28T10:07:04;20.84;91.06
34145;HTU21D;69555;53.014;8.886;2023-07-28T10:09:31;20.53;92.47
34145;HTU21D;69555;53.014;8.886;2023-07-28T10:12:00;20.81;91.63
34145;HTU21D;69555;53.014;8.886;2023-07-28T10:14:27;20.83;92.56
34145;HTU21D;69555;53.014;8.886;2023-07-28T10:17:04;21.25;91.19
34145;HTU21D;69555;53.014;8.886;2023-07-28T10:19:35;21.37;90.42
34145;HTU21D;69555;53.014;8.886;2023-07-28T10:22:09;21.39;90.15
34145;HTU21D;69555;53.014;8.886;2023-07-28T10:24:52;21.09;89.00
34145;HTU21D;69555;53.014;8.886;2023-07-28T10:27:45;21.23;88.60
34145;HTU21D;69555;53.014;8.886;2023-07-28T10:30:14;21.32;88.21
34145;HTU21D;69555;53.014;8.886;2023-07-28T10:32:48;21.51;88.31
34145;HTU21D;69555;53.014;8.886;2023-07-28T10:35:26;21.79;87.52
34145;HTU21D;69555;53.014;8.886;2023-07-28T10:37:53;22.05;86.78
34145;HTU21D;69555;53.014;8.886;2023-07-28T10:42:51;21.21;88.41
34145;HTU21D;69555;53.014;8.886;2023-07-28T10:45:18;20.93;91.01
34145;HTU21D;69555;53.014;8.886;2023-07-28T10:47:46;20.77;92.31
34145;HTU21D;69555;53.014;8.886;2023-07-28T10:50:14;20.57;94.43
34145;HTU21D;69555;53.014;8.886;2023-07-28T10:52:44;21.21;92.36
34145;HTU21D;69555;53.014;8.886;2023-07-28T10:55:24;21.58;91.02
34145;HTU21D;69555;53.014;8.886;2023-07-28T10:57:52;21.91;89.23
34145;HTU21D;69555;53.014;8.886;2023-07-28T11:00:21;22.11;87.31
34145;HTU21D;69555;53.014;8.886;2023-07-28T11:02:51;22.39;88.77
34145;HTU21D;69555;53.014;8.886;2023-07-28T11:05:26;22.76;89.32
34145;HTU21D;69555;53.014;8.886;2023-07-28T11:08:02;23.06;86.91
34145;HTU21D;69555;53.014;8.886;2023-07-28T11:10:29;23.07;85.80
34145;HTU21D;69555;53.014;8.886;2023-07-28T11:12:59;23.07;83.77
34145;HTU21D;69555;53.014;8.886;2023-07-28T11:15:25;23.35;84.79
34145;HTU21D;69555;53.014;8.886;2023-07-28T11:17:52;23.57;85.93
34145;HTU21D;69555;53.014;8.886;2023-07-28T11:20:27;23.64;81.40
34145;HTU21D;69555;53.014;8.886;2023-07-28T11:23:02;23.64;82.18
34145;HTU21D;69555;53.014;8.886;2023-07-28T11:25:33;23.67;80.41
34145;HTU21D;69555;53.014;8.886;2023-07-28T11:28:05;23.44;80.22
34145;HTU21D;69555;53.014;8.886;2023-07-28T11:30:36;23.57;80.18
34145;HTU21D;69555;53.014;8.886;2023-07-28T11:33:03;23.11;80.49
34145;HTU21D;69555;53.014;8.886;2023-07-28T11:35:30;23.39;81.74
34145;HTU21D;69555;53.014;8.886;2023-07-28T11:37:57;23.09;81.66
34145;HTU21D;69555;53.014;8.886;2023-07-28T11:40:24;23.00;81.71
34145;HTU21D;69555;53.014;8.886;2023-07-28T11:42:54;22.81;80.78
34145;HTU21D;69555;53.014;8.886;2023-07-28T11:45:22;22.76;82.13
34145;HTU21D;69555;53.014;8.886;2023-07-28T11:50:36;22.49;82.93
34145;HTU21D;69555;53.014;8.886;2023-07-28T11:53:04;22.05;84.07
34145;HTU21D;69555;53.014;8.886;2023-07-28T11:55:34;21.89;85.02
34145;HTU21D;69555;53.014;8.886;2023-07-28T11:58:01;22.06;84.99
34145;HTU21D;69555;53.014;8.886;2023-07-28T12:00:37;22.19;85.96
34145;HTU21D;69555;53.014;8.886;2023-07-28T12:03:06;22.69;84.77
34145;HTU21D;69555;53.014;8.886;2023-07-28T12:05:37;23.16;82.90
34145;HTU21D;69555;53.014;8.886;2023-07-28T12:08:04;23.56;82.36
34145;HTU21D;69555;53.014;8.886;2023-07-28T12:10:31;23.82;77.60
34145;HTU21D;69555;53.014;8.886;2023-07-28T12:13:07;23.39;79.62
34145;HTU21D;69555;53.014;8.886;2023-07-28T12:15:34;23.37;78.42
34145;HTU21D;69555;53.014;8.886;2023-07-28T12:18:14;23.58;78.53
34145;HTU21D;69555;53.014;8.886;2023-07-28T12:20:44;24.27;79.00
34145;HTU21D;69555;53.014;8.886;2023-07-28T12:23:15;24.77;76.44
34145;HTU21D;69555;53.014;8.886;2023-07-28T12:25:42;24.95;76.68
34145;HTU21D;69555;53.014;8.886;2023-07-28T12:28:10;25.28;74.60
34145;HTU21D;69555;53.014;8.886;2023-07-28T12:30:38;24.59;71.77
34145;HTU21D;69555;53.014;8.886;2023-07-28T12:33:06;24.91;72.35
34145;HTU21D;69555;53.014;8.886;2023-07-28T12:35:33;24.71;71.84
34145;HTU21D;69555;53.014;8.886;2023-07-28T12:38:05;24.59;72.06
34145;HTU21D;69555;53.014;8.886;2023-07-28T12:40:31;24.12;72.81
34145;HTU21D;69555;53.014;8.886;2023-07-28T12:42:59;24.00;73.28
34145;HTU21D;69555;53.014;8.886;2023-07-28T12:45:26;23.94;74.56
34145;HTU21D;69555;53.014;8.886;2023-07-28T12:47:53;23.82;75.98
34145;HTU21D;69555;53.014;8.886;2023-07-28T12:50:21;23.75;75.12
34145;HTU21D;69555;53.014;8.886;2023-07-28T12:52:49;23.79;75.70
34145;HTU21D;69555;53.014;8.886;2023-07-28T12:55:17;23.47;77.18
34145;HTU21D;69555;53.014;8.886;2023-07-28T12:57:44;24.00;78.39
34145;HTU21D;69555;53.014;8.886;2023-07-28T13:00:15;23.80;75.33
34145;HTU21D;69555;53.014;8.886;2023-07-28T13:02:45;24.12;77.08
34145;HTU21D;69555;53.014;8.886;2023-07-28T13:05:13;24.05;75.97
34145;HTU21D;69555;53.014;8.886;2023-07-28T13:07:40;23.88;75.62
34145;HTU21D;69555;53.014;8.886;2023-07-28T13:10:09;23.80;77.57
34145;HTU21D;69555;53.014;8.886;2023-07-28T13:12:37;23.74;76.79
34145;HTU21D;69555;53.014;8.886;2023-07-28T13:15:05;24.01;75.22
34145;HTU21D;69555;53.014;8.886;2023-07-28T13:17:32;23.69;75.83
34145;HTU21D;69555;53.014;8.886;2023-07-28T13:19:59;23.39;76.85
34145;HTU21D;69555;53.014;8.886;2023-07-28T13:22:26;23.53;76.82
34145;HTU21D;69555;53.014;8.886;2023-07-28T13:24:53;23.57;76.77
34145;HTU21D;69555;53.014;8.886;2023-07-28T13:27:20;23.71;75.95
34145;HTU21D;69555;53.014;8.886;2023-07-28T13:29:47;23.50;77.56
34145;HTU21D;69555;53.014;8.886;2023-07-28T13:32:23;23.41;76.54
34145;HTU21D;69555;53.014;8.886;2023-07-28T13:34:51;23.34;77.23
34145;HTU21D;69555;53.014;8.886;2023-07-28T13:37:20;23.49;76.37
34145;HTU21D;69555;53.014;8.886;2023-07-28T13:39:46;23.68;76.59
34145;HTU21D;69555;53.014;8.886;2023-07-28T13:42:13;24.16;74.92
34145;HTU21D;69555;53.014;8.886;2023-07-28T13:44:42;24.85;74.44
34145;HTU21D;69555;53.014;8.886;2023-07-28T13:47:09;24.94;72.09
34145;HTU21D;69555;53.014;8.886;2023-07-28T13:49:36;24.63;71.13
34145;HTU21D;69555;53.014;8.886;2023-07-28T13:52:05;24.59;70.61
34145;HTU21D;69555;53.014;8.886;2023-07-28T13:54:32;25.53;69.07
34145;HTU21D;69555;53.014;8.886;2023-07-28T13:56:58;25.19;68.90
34145;HTU21D;69555;53.014;8.886;2023-07-28T13:59:25;25.16;70.48
34145;HTU21D;69555;53.014;8.886;2023-07-28T14:01:52;25.53;68.28
34145;HTU21D;69555;53.014;8.886;2023-07-28T14:04:18;24.99;70.52
34145;HTU21D;69555;53.014;8.886;2023-07-28T14:06:45;24.71;71.68
34145;HTU21D;69555;53.014;8.886;2023-07-28T14:09:11;25.00;71.16
34145;HTU21D;69555;53.014;8.886;2023-07-28T14:11:39;24.95;71.59
34145;HTU21D;69555;53.014;8.886;2023-07-28T14:14:06;24.80;72.60
34145;HTU21D;69555;53.014;8.886;2023-07-28T14:16:33;24.99;71.59
34145;HTU21D;69555;53.014;8.886;2023-07-28T14:18:59;24.29;72.47
34145;HTU21D;69555;53.014;8.886;2023-07-28T14:21:26;24.66;72.90
34145;HTU21D;69555;53.014;8.886;2023-07-28T14:23:53;24.65;73.51
34145;HTU21D;69555;53.014;8.886;2023-07-28T14:26:19;24.68;73.73
34145;HTU21D;69555;53.014;8.886;2023-07-28T14:28:46;24.21;76.08
34145;HTU21D;69555;53.014;8.886;2023-07-28T14:31:13;23.98;73.28
34145;HTU21D;69555;53.014;8.886;2023-07-28T14:33:39;24.50;73.79
34145;HTU21D;69555;53.014;8.886;2023-07-28T14:36:06;24.50;72.41
34145;HTU21D;69555;53.014;8.886;2023-07-28T14:38:33;24.49;73.69
34145;HTU21D;69555;53.014;8.886;2023-07-28T14:40:59;24.55;74.00
34145;HTU21D;69555;53.014;8.886;2023-07-28T14:43:24;24.23;74.56
34145;HTU21D;69555;53.014;8.886;2023-07-28T14:45:51;23.76;76.71
34145;HTU21D;69555;53.014;8.886;2023-07-28T14:48:18;23.50;78.63
34145;HTU21D;69555;53.014;8.886;2023-07-28T14:50:45;23.10;80.40
34145;HTU21D;69555;53.014;8.886;2023-07-28T14:53:33;22.76;82.78
34145;HTU21D;69555;53.014;8.886;2023-07-28T14:56:02;22.20;85.85
34145;HTU21D;69555;53.014;8.886;2023-07-28T14:58:29;22.13;86.36
34145;HTU21D;69555;53.014;8.886;2023-07-28T15:00:55;21.98;87.23
34145;HTU21D;69555;53.014;8.886;2023-07-28T15:03:22;21.74;89.15
34145;HTU21D;69555;53.014;8.886;2023-07-28T15:05:48;21.59;90.58
34145;HTU21D;69555;53.014;8.886;2023-07-28T15:08:14;21.83;90.14
34145;HTU21D;69555;53.014;8.886;2023-07-28T15:10:40;21.98;89.50
34145;HTU21D;69555;53.014;8.886;2023-07-28T15:13:05;22.41;87.58
34145;HTU21D;69555;53.014;8.886;2023-07-28T15:15:30;22.69;85.88
34145;HTU21D;69555;53.014;8.886;2023-07-28T15:17:56;22.80;85.22